GOOYSBGL

Guest
Details From GOOY - Dakar Leopold Sedar Senghor Intl
To SBGL - Galeao Antonio Carlos Jombim
Flight Number -
Tags decoded
Created
Modified
Stats Distance 2,746 nm / 5,086 km
Max Altitude 0 ft / 0 m
Waypoints 8
Social Downloads 0
Likes 0
Share VATSIM

Download

Looking for another format? Having issues loading an existing format? Contact us
Advertisement - Login to hide

Notes

Requested: GOOY BOMSA UA302 TAROT KODOS UL206 PAMOX UM661 LOBIK PORGA ADA SBGL Unmatched points: UL206 PAMOX UM661 LOBIK

Route

GOOY BOMSA UA302 TAROT KODOS PORGA ADA SBGL

ID Type Via Altitude Latitude Longitude Leg Dist Tot Dist Heading (true) Name
O GOOY APT - 0 ft / 0 m 14.73971˚ -17.49023˚ - 0 nm - Dakar Leopold Sedar Senghor Intl
BOMSA FIX - 0 ft / 0 m 13.96889˚ -18.00000˚ 54 nm 54 nm 213° / 213° -
INIRO FIX UA302 (AWY-HI) 0 ft / 0 m 13.33194˚ -18.42778˚ 45 nm 100 nm 213° / 213° -
TAROT FIX UA302 (AWY-HI) 0 ft / 0 m 11.46500˚ -19.66667˚ 133 nm 234 nm 213° / 213° -
KODOS FIX - 0 ft / 0 m 1.20300˚ -26.21700˚ 729 nm 963 nm 213° / 212° -
PORGA FIX - 0 ft / 0 m -18.67933˚ -38.24283˚ 1389 nm 2353 nm 210° / 212° -
ADA NDB - 0 ft / 0 m -22.82296˚ -42.09649˚ 329 nm 2682 nm 220° / 222° ALDEIA NDB
O SBGL APT - 0 ft / 0 m -22.80894˚ -43.24368˚ 63 nm 2746 nm 271° / 271° Galeao Antonio Carlos Jombim

Altitude Profile

Advertisement - Login to hide

Weather


0- 5 10 15 20 25 30 35+ Temperature / ° C

Clouds and Precipitation
Forecast for 2018-05-21 12:00 UTC. Updated 2 hours ago

Ground ~20,000 ft ~40,000 ft Winds

GOOY

Details ICAO GOOY (DKR)
Name Dakar Leopold Sedar Senghor Intl
Region Senegal
Timezone Africa/Dakar (UTC+0.0)
Stats Elevation 85 ft / 26 m (AMSL)
Location 14.739711° -17.490226°
Runways 2
Magnetic Variation 7.298° W

METAR

GOOY 211300Z 36010KT CAVOK 24/19 Q1013

Decode

TAF

TAF GOOY 211130Z 2112/2218 36012KT CAVOK= TAF GBYD 211130Z 2112/2218 30010KT 9999 SCT010

Decode

Departure Runways

ID Width Length Bearing (true) Bearing (mag) Surface Threshold Offset Overrun Length
03 98 ft / 30 m 4,921 ft / 1,500 m 22.31° 29.61° Asphalt 0 ft / 0 m 98 ft / 30 m
18 148 ft / 45 m 11,511 ft / 3,509 m 172.57° 179.87° Asphalt 525 ft / 160 m 197 ft / 60 m
21 98 ft / 30 m 4,921 ft / 1,500 m 202.31° 209.61° Asphalt 0 ft / 0 m 1,590 ft / 485 m
36 148 ft / 45 m 11,511 ft / 3,509 m 352.57° 359.87° Asphalt 0 ft / 0 m 197 ft / 60 m

SBGL

Details ICAO SBGL (GIG)
Name Galeao Antonio Carlos Jombim
Region Brazil
Timezone America/Sao_Paulo (UTC-3.0)
Stats Elevation 28 ft / 9 m (AMSL)
Location -22.808938° -43.243681°
Runways 2
Magnetic Variation 22.810° W

METAR

SBGL 211300Z 01004KT CAVOK 21/15 Q1018

Decode

TAF

TAF SBGL 210820Z 2112/2218 33005KT CAVOK TN16/2209Z TX26/2218Z BECMG 2113/2115 03005KT BECMG 2116/2118 14010KT 9999 FEW020 BECMG 2122/2124 09005KT 8000 SCT020 BECMG 2203/2205 03005KT BECMG 2208/2210 33005KT 8000 SCT015 BECMG 2215/2217 18010KT 9999 FEW020 BECMG 2217/2218 22010KT 7000 BKN015 RMK PGZ

Decode

Destination Runways

ID Width Length Bearing (true) Bearing (mag) Surface Threshold Offset Overrun Length
10 148 ft / 45 m 13,128 ft / 4,001 m 74.39° 97.20° Concrete 0 ft / 0 m 175 ft / 53 m
15 154 ft / 47 m 10,418 ft / 3,175 m 125.78° 148.59° Asphalt 0 ft / 0 m 185 ft / 56 m
28 148 ft / 45 m 13,128 ft / 4,001 m 254.38° 277.19° Concrete 0 ft / 0 m 175 ft / 53 m
33 154 ft / 47 m 10,418 ft / 3,175 m 305.78° 328.59° Asphalt 0 ft / 0 m 185 ft / 56 m

Approach Navaids

Runway Type Ident Frequency Range Bearing (true) Bearing (mag) Slope Elevation
10 Localiser ITB 109.30 MHz 18 nm / 33 km 74.25° 97.06° - 16 ft / 5 m (AMSL)
10 Glidescope ITB 109.30 MHz 10 nm / 19 km 74.39° 97.20° 3.00° 16 ft / 5 m (AMSL)
15 Localiser IGL 110.30 MHz 18 nm / 33 km 125.61° 148.42° - 12 ft / 4 m (AMSL)
15 Glidescope IGL 110.30 MHz 10 nm / 19 km 125.78° 148.59° 3.00° 17 ft / 5 m (AMSL)
15 DME IGL 110.30 MHz 18 nm / 33 km - - - 17 ft / 5 m (AMSL)
28 Localiser ILM 111.50 MHz 18 nm / 33 km 254.59° 277.40° - 28 ft / 9 m (AMSL)
28 Glidescope ILM 111.50 MHz 10 nm / 19 km 254.39° 277.20° 2.94° 28 ft / 9 m (AMSL)
28 DME ILM 111.50 MHz 18 nm / 33 km - - - 28 ft / 9 m (AMSL)

Popular Alternatives